Time;durP1;ratioP1;P1;durP2;ratioP2;P2;SDS_P1;SDS_P2;PMS_P1;PMS_P2;Temp;Humidity;BMP_temperature;BMP_pressure;BME280_temperature;BME280_humidity;BME280_pressure;Samples;Min_cycle;Max_cycle;Signal;HPM_P1;HPM_P2
2023/03/11 00:05:47;;;;;;;6.85;4.75;;;15.30;82.00;;;;;;10983849;32;20045;-71
2023/03/11 00:11:49;;;;;;;8.10;5.05;;;15.20;81.60;;;;;;10983732;32;20041;-71
2023/03/11 00:17:51;;;;;;;9.02;6.10;;;15.20;81.80;;;;;;10984063;32;20049;-71
2023/03/11 00:23:53;;;;;;;10.90;5.20;;;15.30;82.00;;;;;;10983561;32;20392;-71
2023/03/11 00:29:55;;;;;;;10.80;6.37;;;15.30;82.20;;;;;;10987628;27;20049;-71
2023/03/11 00:35:57;;;;;;;6.05;4.75;;;15.30;82.00;;;;;;10982706;32;20049;-71
2023/03/11 00:41:59;;;;;;;6.07;5.05;;;15.30;81.70;;;;;;10983197;32;20450;-71
2023/03/11 00:48:02;;;;;;;6.97;4.50;;;15.10;81.40;;;;;;10982323;32;20023;-71
2023/03/11 00:54:04;;;;;;;4.85;3.60;;;15.00;81.50;;;;;;10978157;32;20019;-71
2023/03/11 01:00:10;;;;;;;9.68;5.97;;;14.70;81.60;;;;;;10981788;32;20076;-71
2023/03/11 01:06:13;;;;;;;8.50;6.75;;;14.40;82.10;;;;;;10981593;32;20041;-70
2023/03/11 01:12:15;;;;;;;10.88;4.75;;;14.30;82.00;;;;;;10981350;32;20023;-71
2023/03/11 01:18:19;;;;;;;7.85;5.07;;;14.40;81.90;;;;;;10981170;32;20037;-71
2023/03/11 01:24:21;;;;;;;4.93;3.42;;;14.40;81.90;;;;;;10981045;32;20049;-71
2023/03/11 01:30:25;;;;;;;4.95;3.42;;;14.40;81.40;;;;;;10980754;32;20050;-70
2023/03/11 01:36:27;;;;;;;6.55;4.03;;;14.20;81.60;;;;;;10981816;32;20015;-70
2023/03/11 01:42:29;;;;;;;5.53;4.20;;;14.00;81.90;;;;;;10981640;32;20045;-70
2023/03/11 01:48:31;;;;;;;8.60;4.93;;;13.80;81.80;;;;;;10980156;32;20023;-70
2023/03/11 01:54:38;;;;;;;6.47;4.62;;;13.60;82.10;;;;;;10968094;32;20050;-71
2023/03/11 02:00:41;;;;;;;9.93;6.15;;;14.00;82.10;;;;;;10980618;32;20332;-71
2023/03/11 02:06:43;;;;;;;4.72;3.70;;;14.20;82.10;;;;;;10980288;32;20457;-70
2023/03/11 02:12:49;;;;;;;7.25;4.85;;;14.20;81.90;;;;;;10979675;32;20014;-71
2023/03/11 02:19:06;;;;;;;5.78;4.37;;;13.90;82.00;;;;;;10980766;32;20006;-71
2023/03/11 02:25:46;;;;;;;8.02;5.57;;;14.10;82.00;;;;;;10979461;32;20388;-71
2023/03/11 02:31:49;;;;;;;6.65;4.22;;;14.30;82.30;;;;;;10979581;32;20027;-71
2023/03/11 02:37:53;;;;;;;4.78;3.87;;;14.00;82.00;;;;;;10963854;32;20026;-71
2023/03/11 02:43:57;;;;;;;6.32;4.32;;;13.70;82.50;;;;;;10979095;32;20438;-70
2023/03/11 02:49:59;;;;;;;9.85;8.07;;;13.60;82.60;;;;;;10978999;32;20019;-71
2023/03/11 02:56:02;;;;;;;4.40;3.37;;;13.60;82.70;;;;;;10978901;32;20027;-71
2023/03/11 03:02:05;;;;;;;7.35;4.97;;;13.60;82.30;;;;;;10979437;32;20320;-70
2023/03/11 03:08:08;;;;;;;6.53;4.72;;;13.30;82.50;;;;;;10978733;32;20400;-71
2023/03/11 03:14:10;;;;;;;4.68;3.30;;;13.60;82.60;;;;;;10980311;32;20019;-71
2023/03/11 03:20:13;;;;;;;6.78;4.60;;;13.50;82.20;;;;;;10986724;32;20282;-70
2023/03/11 03:26:15;;;;;;;6.45;4.35;;;13.30;82.50;;;;;;10971333;32;20043;-70
2023/03/11 03:32:18;;;;;;;9.95;6.00;;;13.50;82.70;;;;;;10985016;32;20426;-71
2023/03/11 03:38:21;;;;;;;6.50;4.22;;;13.70;82.50;;;;;;10984892;32;20007;-70
2023/03/11 03:44:24;;;;;;;6.97;5.10;;;13.70;81.90;;;;;;10983898;32;20088;-70
2023/03/11 03:50:27;;;;;;;5.50;3.90;;;13.70;81.50;;;;;;10984452;32;20031;-70
2023/03/11 03:56:30;;;;;;;5.22;3.58;;;13.40;81.80;;;;;;10970318;32;20030;-71
2023/03/11 04:02:32;;;;;;;5.87;3.87;;;13.30;82.00;;;;;;10985162;32;20023;-70
2023/03/11 04:08:36;;;;;;;11.38;7.22;;;13.30;82.00;;;;;;10984937;32;20031;-70
2023/03/11 04:14:39;;;;;;;4.40;3.37;;;13.40;81.80;;;;;;10954295;32;20077;-71
2023/03/11 04:20:42;;;;;;;7.43;4.85;;;13.20;82.00;;;;;;10984040;32;20266;-70
2023/03/11 04:26:44;;;;;;;5.53;3.85;;;13.20;81.70;;;;;;10978830;32;20447;-71
2023/03/11 04:32:47;;;;;;;8.90;5.25;;;13.00;82.10;;;;;;10969604;32;20340;-70
2023/03/11 04:38:50;;;;;;;5.32;3.60;;;13.10;81.90;;;;;;10982552;32;20019;-70
2023/03/11 04:44:52;;;;;;;5.78;4.10;;;12.90;82.10;;;;;;10981475;32;20064;-73
2023/03/11 04:50:55;;;;;;;8.35;5.72;;;12.80;82.20;;;;;;10982757;32;20014;-73
2023/03/11 04:56:58;;;;;;;5.22;3.58;;;13.10;82.10;;;;;;10981955;32;20050;-73
2023/03/11 05:03:00;;;;;;;7.35;4.80;;;13.20;81.90;;;;;;10983141;32;20423;-73
2023/03/11 05:09:03;;;;;;;7.10;5.05;;;13.20;82.00;;;;;;10978258;32;20030;-73
2023/03/11 05:15:08;;;;;;;8.10;5.00;;;13.30;81.70;;;;;;10981833;32;20023;-73
2023/03/11 05:21:11;;;;;;;6.12;3.72;;;13.30;81.90;;;;;;10966710;32;20461;-73
2023/03/11 05:27:16;;;;;;;7.37;4.87;;;13.00;82.00;;;;;;10967501;32;20376;-73
2023/03/11 05:33:20;;;;;;;5.62;4.00;;;12.90;82.30;;;;;;10980821;32;20062;-73
2023/03/11 05:39:22;;;;;;;7.93;6.05;;;13.10;82.40;;;;;;10980999;32;20426;-73
2023/03/11 05:45:25;;;;;;;7.10;4.82;;;13.10;82.40;;;;;;10980348;32;20091;-73
2023/03/11 05:51:28;;;;;;;7.05;4.35;;;13.20;82.20;;;;;;10968096;32;20015;-73
2023/03/11 05:57:31;;;;;;;8.68;6.35;;;13.20;82.10;;;;;;10980058;32;20052;-73
2023/03/11 06:03:33;;;;;;;15.18;10.65;;;13.20;82.20;;;;;;10979905;32;20426;-73
2023/03/11 06:09:35;;;;;;;19.00;8.20;;;13.30;82.60;;;;;;10979694;32;20045;-73
2023/03/11 06:15:38;;;;;;;11.25;7.28;;;13.20;82.30;;;;;;10980822;32;20045;-71
2023/03/11 06:21:40;;;;;;;14.77;10.38;;;13.00;82.70;;;;;;10980585;32;20023;-71
2023/03/11 06:27:47;;;;;;;8.48;5.25;;;13.20;82.80;;;;;;10979918;32;20336;-71
2023/03/11 06:33:50;;;;;;;7.62;5.55;;;13.10;82.60;;;;;;10965270;32;20352;-71
2023/03/11 06:39:52;;;;;;;9.77;6.03;;;12.80;82.60;;;;;;10965342;32;20035;-71
2023/03/11 06:45:56;;;;;;;8.80;5.80;;;12.70;82.60;;;;;;10961763;32;20022;-70
2023/03/11 06:51:58;;;;;;;7.60;5.75;;;12.80;83.00;;;;;;10970403;32;20053;-71
2023/03/11 06:58:00;;;;;;;12.02;7.78;;;12.80;82.80;;;;;;10986702;32;20037;-71
2023/03/11 07:04:03;;;;;;;8.27;6.50;;;12.80;83.00;;;;;;10987786;32;20038;-71
2023/03/11 07:10:07;;;;;;;14.02;7.10;;;12.80;82.90;;;;;;10985345;32;20076;-71
2023/03/11 07:16:16;;;;;;;12.77;10.30;;;12.70;83.20;;;;;;10982891;32;20409;-74
2023/03/11 07:22:18;;;;;;;10.20;7.32;;;12.90;83.10;;;;;;10985350;32;20007;-73
2023/03/11 07:28:24;;;;;;;11.27;8.25;;;12.90;82.90;;;;;;10985662;32;20332;-71
2023/03/11 07:34:26;;;;;;;10.40;7.20;;;12.90;82.80;;;;;;10985612;32;20019;-71
2023/03/11 07:40:28;;;;;;;13.57;12.00;;;12.90;82.80;;;;;;10984776;32;20019;-71
2023/03/11 07:46:31;;;;;;;10.05;6.10;;;12.90;82.70;;;;;;10970576;32;20328;-73
2023/03/11 07:52:34;;;;;;;11.35;8.45;;;13.00;82.70;;;;;;10964035;32;20023;-74
2023/03/11 07:58:36;;;;;;;20.52;13.95;;;13.20;83.00;;;;;;10947022;32;20388;-74
2023/03/11 08:04:38;;;;;;;15.07;10.25;;;13.50;82.80;;;;;;10931953;32;20031;-74
2023/03/11 08:10:40;;;;;;;10.77;7.55;;;13.60;82.40;;;;;;10946050;32;20033;-73
2023/03/11 08:16:42;;;;;;;7.53;4.72;;;13.90;82.70;;;;;;10943576;32;20333;-74
2023/03/11 08:22:45;;;;;;;7.50;4.20;;;14.00;83.30;;;;;;10946162;32;20416;-74
2023/03/11 08:28:48;;;;;;;10.70;6.20;;;14.10;83.20;;;;;;10963460;27;20049;-74
2023/03/11 08:34:50;;;;;;;17.80;7.93;;;14.10;83.40;;;;;;11019882;32;20022;-73
2023/03/11 08:40:52;;;;;;;8.40;5.60;;;14.20;83.90;;;;;;11008427;32;20015;-73
2023/03/11 08:46:54;;;;;;;18.30;7.87;;;14.30;84.10;;;;;;11006828;32;20026;-73
2023/03/11 08:52:59;;;;;;;10.98;5.97;;;14.40;84.20;;;;;;11020900;32;20407;-73
2023/03/11 08:59:01;;;;;;;21.65;11.73;;;14.50;84.20;;;;;;11020053;32;20018;-73
2023/03/11 09:05:04;;;;;;;8.57;5.25;;;14.50;84.00;;;;;;11020905;32;20041;-73
2023/03/11 09:11:07;;;;;;;6.00;3.33;;;14.30;84.20;;;;;;11019310;32;20430;-73
2023/03/11 09:17:10;;;;;;;17.40;7.93;;;14.50;84.40;;;;;;11018903;32;20022;-71
2023/03/11 09:23:15;;;;;;;10.63;6.22;;;14.50;84.40;;;;;;11015712;32;20343;-71
2023/03/11 09:29:17;;;;;;;24.15;9.88;;;14.60;84.70;;;;;;11018947;32;20049;-71
2023/03/11 09:35:19;;;;;;;13.35;6.25;;;14.70;84.80;;;;;;11018944;32;20041;-71
2023/03/11 09:41:33;;;;;;;15.98;8.73;;;14.70;84.50;;;;;;11018755;32;20041;-71
2023/03/11 09:47:37;;;;;;;11.23;8.25;;;14.80;84.30;;;;;;11016574;32;20022;-73
2023/03/11 09:53:44;;;;;;;17.25;12.30;;;15.00;84.20;;;;;;11018229;32;20007;-72
2023/03/11 09:59:47;;;;;;;21.10;14.52;;;15.10;84.40;;;;;;11018141;32;20022;-72
2023/03/11 10:05:53;;;;;;;18.35;11.50;;;15.20;83.90;;;;;;11018524;32;20010;-73
2023/03/11 10:12:19;;;;;;;23.55;14.05;;;15.30;82.60;;;;;;11018506;32;20060;-73
2023/03/11 10:18:38;;;;;;;20.90;13.65;;;15.50;83.00;;;;;;11003578;32;20026;-72
2023/03/11 10:24:58;;;;;;;16.10;10.27;;;15.60;83.10;;;;;;11021393;32;20069;-72
2023/03/11 10:31:18;;;;;;;21.40;14.90;;;15.80;82.30;;;;;;11025367;32;20033;-72
2023/03/11 10:37:31;;;;;;;21.17;15.27;;;16.10;80.90;;;;;;11013277;32;20023;-72
2023/03/11 10:43:42;;;;;;;23.60;15.32;;;16.20;80.60;;;;;;10998481;32;20030;-71
2023/03/11 10:49:52;;;;;;;22.30;15.60;;;16.20;80.40;;;;;;11025544;32;20331;-72
2023/03/11 10:55:57;;;;;;;15.75;11.52;;;16.30;80.10;;;;;;11026373;32;20037;-72
2023/03/11 11:02:01;;;;;;;21.33;16.42;;;16.30;80.20;;;;;;11011395;32;20018;-73
2023/03/11 11:08:06;;;;;;;26.85;18.35;;;16.30;80.70;;;;;;11010062;32;20399;-73
2023/03/11 11:14:09;;;;;;;19.77;13.45;;;16.30;79.80;;;;;;11025107;32;20022;-73
2023/03/11 11:20:17;;;;;;;14.27;10.95;;;16.30;81.70;;;;;;11023762;32;20041;-73
2023/03/11 11:26:21;;;;;;;22.55;13.93;;;16.50;80.50;;;;;;11023670;32;20418;-73
2023/03/11 11:32:24;;;;;;;21.33;12.73;;;16.70;80.40;;;;;;11023617;32;20014;-73
2023/03/11 11:38:29;;;;;;;22.00;12.88;;;16.80;79.30;;;;;;11022593;32;20010;-73
2023/03/11 11:44:33;;;;;;;19.95;12.35;;;16.90;79.10;;;;;;11024554;32;20022;-73
2023/03/11 11:50:43;;;;;;;19.92;12.63;;;17.00;79.50;;;;;;11008500;32;20034;-73
2023/03/11 11:56:45;;;;;;;28.87;16.42;;;16.90;79.60;;;;;;11022523;32;20010;-73
2023/03/11 12:02:57;;;;;;;23.02;16.50;;;17.00;79.20;;;;;;11022294;32;20018;-73
2023/03/11 12:09:12;;;;;;;18.17;12.25;;;17.20;78.10;;;;;;11022591;32;20053;-73
2023/03/11 12:15:28;;;;;;;25.25;16.37;;;17.60;77.80;;;;;;11021853;32;20053;-73
2023/03/11 12:21:51;;;;;;;30.12;21.30;;;18.00;77.70;;;;;;11023429;32;20041;-73
2023/03/11 12:28:10;;;;;;;20.35;12.27;;;18.10;76.60;;;;;;11021827;32;20294;-73
2023/03/11 12:34:18;;;;;;;37.38;18.52;;;18.20;77.40;;;;;;11022378;32;20014;-73
2023/03/11 12:40:43;;;;;;;24.95;19.95;;;18.50;76.40;;;;;;11006548;32;20026;-73
2023/03/11 12:47:22;;;;;;;37.42;21.42;;;18.80;75.70;;;;;;10940906;32;20085;-73
2023/03/11 12:53:42;;;;;;;18.13;13.47;;;18.70;77.10;;;;;;10829346;32;20299;-73
2023/03/11 13:00:21;;;;;;;30.70;21.70;;;18.90;77.30;;;;;;10827065;32;20036;-72
2023/03/11 13:06:42;;;;;;;;;;;18.90;76.80;;;;;;10829846;32;20075;-73
2023/03/11 13:12:51;;;;;;;30.23;24.75;;;18.80;75.90;;;;;;10815158;32;19954;-72
2023/03/11 13:18:53;;;;;;;34.50;26.95;;;18.80;74.60;;;;;;10824262;32;20028;-72
2023/03/11 13:24:55;;;;;;;44.50;25.62;;;18.80;74.50;;;;;;10828268;32;20345;-73
2023/03/11 13:31:15;;;;;;;30.08;23.48;;;18.80;74.00;;;;;;10990495;32;20041;-73
2023/03/11 13:37:36;;;;;;;28.85;24.42;;;18.90;73.80;;;;;;11019895;32;20036;-73
2023/03/11 13:43:47;;;;;;;26.50;21.85;;;19.10;73.50;;;;;;11004408;32;20026;-73
2023/03/11 13:50:16;;;;;;;35.70;22.10;;;19.10;73.20;;;;;;11018382;32;20050;-73
2023/03/11 13:56:30;;;;;;;32.13;23.23;;;19.10;72.80;;;;;;11004928;32;20336;-73
2023/03/11 14:02:32;;;;;;;32.65;21.52;;;18.70;74.40;;;;;;11003880;32;20026;-73
2023/03/11 14:08:36;;;;;;;39.08;32.55;;;18.80;74.00;;;;;;11003885;32;20321;-73
2023/03/11 14:14:54;;;;;;;31.95;21.92;;;18.80;73.20;;;;;;11018587;32;20009;-73
2023/03/11 14:20:56;;;;;;;26.85;22.00;;;18.80;73.10;;;;;;11018994;32;20388;-73
2023/03/11 14:27:01;;;;;;;25.15;17.30;;;19.00;71.90;;;;;;11003537;32;20027;-73
2023/03/11 14:33:21;;;;;;;24.37;18.75;;;19.20;71.00;;;;;;11002538;32;20061;-72
2023/03/11 14:39:31;;;;;;;19.48;15.07;;;19.40;70.30;;;;;;11017956;32;20040;-73
2023/03/11 14:45:36;;;;;;;29.12;16.62;;;19.60;70.40;;;;;;11003290;32;20053;-73
2023/03/11 14:51:38;;;;;;;29.85;20.75;;;19.80;69.60;;;;;;11017969;32;20391;-73
2023/03/11 14:58:03;;;;;;;23.52;15.55;;;20.10;69.60;;;;;;11018292;32;20010;-73
2023/03/11 15:04:32;;;;;;;23.52;15.90;;;20.10;69.30;;;;;;11016461;32;20018;-72
2023/03/11 15:10:35;;;;;;;13.70;10.50;;;20.00;68.60;;;;;;11018338;32;20038;-73
2023/03/11 15:16:37;;;;;;;15.45;10.45;;;20.20;69.10;;;;;;11024515;32;20018;-72
2023/03/11 15:22:40;;;;;;;21.05;12.52;;;20.50;68.50;;;;;;11009269;32;20048;-73
2023/03/11 15:28:42;;;;;;;15.52;9.38;;;20.80;67.50;;;;;;11010750;32;20048;-73
2023/03/11 15:34:44;;;;;;;18.60;13.35;;;21.00;68.10;;;;;;11023217;32;20050;-72
2023/03/11 15:40:53;;;;;;;14.18;8.07;;;21.40;71.80;;;;;;11023561;32;20056;-72
2023/03/11 15:46:58;;;;;;;;;;;21.90;70.20;;;;;;11023009;32;20077;-72
2023/03/11 15:53:00;;;;;;;17.25;13.98;;;22.30;72.70;;;;;;11023101;32;19947;-73
2023/03/11 15:59:02;;;;;;;26.05;14.38;;;22.60;71.30;;;;;;11006804;32;20426;-72
2023/03/11 16:05:16;;;;;;;21.33;10.88;;;22.90;70.90;;;;;;11023366;32;20038;-72
2023/03/11 16:11:18;;;;;;;27.65;15.77;;;23.00;70.40;;;;;;11009445;32;20018;-72
2023/03/11 16:17:22;;;;;;;23.45;14.43;;;23.20;69.10;;;;;;11021770;32;20018;-72
2023/03/11 16:23:33;;;;;;;14.70;10.73;;;23.10;69.10;;;;;;11021496;32;20015;-72
2023/03/11 16:29:37;;;;;;;32.67;20.20;;;22.90;69.10;;;;;;11000443;26;20073;-72
2023/03/11 16:35:40;;;;;;;25.15;17.37;;;22.50;68.10;;;;;;10984751;32;20041;-72
2023/03/11 16:41:43;;;;;;;22.10;15.00;;;21.80;68.80;;;;;;10983391;32;20340;-72
2023/03/11 16:47:45;;;;;;;34.20;24.80;;;21.30;69.60;;;;;;10983120;32;20045;-72
2023/03/11 16:53:48;;;;;;;33.65;21.58;;;20.80;70.10;;;;;;10968620;32;20061;-73
2023/03/11 16:59:51;;;;;;;25.73;15.27;;;19.90;70.70;;;;;;10968217;32;20026;-72
2023/03/11 17:06:00;;;;;;;29.42;22.48;;;19.10;72.80;;;;;;10981848;32;20027;-72
2023/03/11 17:12:03;;;;;;;28.77;21.02;;;18.70;73.10;;;;;;10978655;32;20019;-73
2023/03/11 17:18:06;;;;;;;34.42;28.20;;;18.30;73.90;;;;;;10981359;32;20048;-72
2023/03/11 17:24:09;;;;;;;26.67;21.40;;;17.90;74.30;;;;;;10969154;32;20320;-72
2023/03/11 17:30:11;;;;;;;25.00;18.60;;;17.80;74.90;;;;;;10981373;32;20053;-72
2023/03/11 17:36:16;;;;;;;32.72;23.85;;;17.60;74.90;;;;;;10980388;32;20015;-71
2023/03/11 17:42:18;;;;;;;41.67;32.97;;;17.40;75.00;;;;;;10962701;32;20062;-72
2023/03/11 17:48:20;;;;;;;35.22;22.17;;;17.30;74.70;;;;;;10965896;32;20038;-71
2023/03/11 17:54:23;;;;;;;30.10;23.60;;;17.00;75.10;;;;;;10980780;32;20348;-73
2023/03/11 18:00:25;;;;;;;28.95;18.20;;;16.90;75.60;;;;;;10966368;32;20034;-73
2023/03/11 18:06:28;;;;;;;32.60;22.13;;;16.80;75.60;;;;;;10979875;32;20053;-73
2023/03/11 18:12:30;;;;;;;20.60;16.30;;;16.70;75.60;;;;;;10980261;32;20018;-73
2023/03/11 18:18:33;;;;;;;26.83;19.27;;;16.70;75.90;;;;;;10979660;32;20019;-73
2023/03/11 18:24:36;;;;;;;27.98;19.02;;;16.70;76.20;;;;;;10965376;32;20066;-73
2023/03/11 18:30:38;;;;;;;21.87;14.85;;;16.80;76.40;;;;;;10979938;32;20061;-73
2023/03/11 18:36:41;;;;;;;23.98;15.63;;;16.70;76.50;;;;;;10979299;32;20037;-73
2023/03/11 18:42:43;;;;;;;21.00;15.43;;;16.70;76.50;;;;;;10979630;32;20331;-73
2023/03/11 18:48:45;;;;;;;23.50;14.48;;;16.70;76.80;;;;;;10984882;32;20045;-73
2023/03/11 18:54:47;;;;;;;17.58;14.13;;;16.50;77.10;;;;;;10988492;32;20300;-71
2023/03/11 19:00:49;;;;;;;19.70;15.40;;;16.40;77.30;;;;;;10987685;32;20044;-71
2023/03/11 19:06:51;;;;;;;27.13;17.98;;;16.30;77.60;;;;;;10959763;32;20328;-71
2023/03/11 19:12:53;;;;;;;31.50;21.73;;;16.30;77.40;;;;;;10985056;32;20046;-71
2023/03/11 19:18:55;;;;;;;24.92;18.77;;;16.30;77.60;;;;;;10971962;32;20355;-71
2023/03/11 19:24:57;;;;;;;20.90;16.02;;;16.30;77.70;;;;;;10985449;32;20018;-71
2023/03/11 19:30:59;;;;;;;20.40;12.10;;;16.20;78.00;;;;;;10972131;32;20031;-73
2023/03/11 19:37:01;;;;;;;29.42;21.42;;;16.10;78.10;;;;;;10982984;32;20108;-73
2023/03/11 19:43:04;;;;;;;18.87;15.02;;;16.00;78.00;;;;;;10958839;32;20498;-73
2023/03/11 19:49:06;;;;;;;26.73;17.70;;;15.90;78.20;;;;;;10985331;32;20431;-74
2023/03/11 19:55:08;;;;;;;21.45;16.12;;;15.80;78.20;;;;;;10968180;32;20061;-73
2023/03/11 20:01:17;;;;;;;17.37;13.18;;;15.80;78.50;;;;;;10985439;32;20037;-73
2023/03/11 20:07:19;;;;;;;22.35;12.57;;;15.80;79.00;;;;;;10984073;32;20030;-73
2023/03/11 20:13:22;;;;;;;18.42;13.43;;;15.70;79.10;;;;;;10984650;32;20135;-73
2023/03/11 20:19:24;;;;;;;21.77;14.50;;;15.70;79.00;;;;;;10966769;32;20393;-73
2023/03/11 20:25:28;;;;;;;20.42;14.87;;;15.70;79.00;;;;;;10967613;32;20096;-73
2023/03/11 20:31:30;;;;;;;20.08;15.73;;;15.70;79.10;;;;;;10980511;32;20045;-73
2023/03/11 20:37:32;;;;;;;26.77;14.93;;;15.70;79.40;;;;;;10983016;32;20030;-73
2023/03/11 20:43:38;;;;;;;23.23;16.30;;;15.70;79.90;;;;;;10982789;32;20038;-73
2023/03/11 20:49:42;;;;;;;21.23;16.80;;;15.50;80.10;;;;;;10954852;32;20035;-73
2023/03/11 20:55:45;;;;;;;15.70;12.43;;;15.40;80.40;;;;;;10944947;32;20073;-73
2023/03/11 21:01:48;;;;;;;14.20;10.50;;;15.20;80.10;;;;;;10945017;32;20022;-73
2023/03/11 21:07:50;;;;;;;11.88;9.00;;;15.30;80.30;;;;;;10931970;32;20045;-73
2023/03/11 21:13:53;;;;;;;19.33;6.03;;;15.40;80.30;;;;;;10944759;32;20427;-73
2023/03/11 21:19:56;;;;;;;12.88;7.65;;;15.40;80.30;;;;;;10930022;32;20396;-73
2023/03/11 21:26:02;;;;;;;21.62;12.57;;;15.40;80.20;;;;;;10943783;32;20026;-73
2023/03/11 21:32:04;;;;;;;10.40;7.28;;;15.30;79.40;;;;;;10943729;32;20053;-73
2023/03/11 21:38:06;;;;;;;10.68;6.15;;;15.00;79.60;;;;;;10943901;32;20462;-73
2023/03/11 21:44:08;;;;;;;7.03;4.55;;;15.00;79.80;;;;;;10929092;32;20057;-73
2023/03/11 21:50:11;;;;;;;8.55;5.53;;;15.00;80.00;;;;;;10942820;32;20018;-73
2023/03/11 21:56:13;;;;;;;5.75;3.60;;;14.90;79.80;;;;;;10943331;32;20401;-73
2023/03/11 22:02:16;;;;;;;3.47;2.62;;;14.90;80.10;;;;;;10940717;32;20038;-73
2023/03/11 22:08:18;;;;;;;9.82;3.87;;;14.80;80.10;;;;;;10942447;32;20053;-72
2023/03/11 22:14:20;;;;;;;3.83;2.78;;;14.80;80.00;;;;;;10942255;32;20037;-73
2023/03/11 22:20:22;;;;;;;4.00;2.40;;;14.70;80.10;;;;;;10942061;32;20399;-73
2023/03/11 22:26:24;;;;;;;5.15;2.87;;;14.60;79.80;;;;;;10928132;32;20306;-73
2023/03/11 22:32:27;;;;;;;4.32;2.90;;;14.50;79.90;;;;;;10942068;32;20077;-73
2023/03/11 22:38:29;;;;;;;2.83;2.10;;;14.30;79.90;;;;;;10941802;32;20057;-73
2023/03/11 22:44:32;;;;;;;3.22;2.53;;;14.20;79.50;;;;;;10941886;32;20049;-73
2023/03/11 22:50:34;;;;;;;3.58;2.55;;;14.20;79.70;;;;;;10941052;32;20027;-72
2023/03/11 22:56:36;;;;;;;3.37;2.25;;;14.10;79.70;;;;;;10927444;32;20075;-72
2023/03/11 23:02:39;;;;;;;4.05;2.30;;;14.00;80.20;;;;;;10941318;32;20042;-73
2023/03/11 23:08:41;;;;;;;2.97;2.12;;;13.90;80.30;;;;;;10941737;32;20305;-73
2023/03/11 23:14:45;;;;;;;4.93;2.55;;;14.00;80.20;;;;;;10942218;32;20015;-73
2023/03/11 23:20:47;;;;;;;2.60;1.58;;;14.00;80.20;;;;;;10940588;32;20337;-73
2023/03/11 23:26:49;;;;;;;4.50;1.90;;;14.10;80.30;;;;;;10940738;32;20026;-73
2023/03/11 23:32:51;;;;;;;5.45;2.30;;;14.00;80.20;;;;;;10721115;32;7210392;-73
2023/03/11 23:38:53;;;;;;;3.45;2.42;;;14.10;80.40;;;;;;10948204;32;20389;-73
2023/03/11 23:44:55;;;;;;;3.62;1.45;;;14.10;80.20;;;;;;10947494;32;20046;-73
2023/03/11 23:50:57;;;;;;;3.78;2.28;;;14.00;80.60;;;;;;10945771;32;20030;-73
2023/03/11 23:57:01;;;;;;;2.47;1.95;;;14.00;79.80;;;;;;10946873;32;20097;-73
